sensor_id;sensor_type;location;lat;lon;timestamp;temperature;humidity
24664;DHT22;12791;50.992;13.788;2022-08-16T00:02:12;19.80;95.90
24664;DHT22;12791;50.992;13.788;2022-08-16T00:04:39;19.80;95.90
24664;DHT22;12791;50.992;13.788;2022-08-16T00:07:05;19.70;95.80
24664;DHT22;12791;50.992;13.788;2022-08-16T00:09:33;19.70;95.90
24664;DHT22;12791;50.992;13.788;2022-08-16T00:12:00;19.60;96.00
24664;DHT22;12791;50.992;13.788;2022-08-16T00:14:29;19.70;96.10
24664;DHT22;12791;50.992;13.788;2022-08-16T00:16:57;19.60;95.90
24664;DHT22;12791;50.992;13.788;2022-08-16T00:19:27;19.60;95.80
24664;DHT22;12791;50.992;13.788;2022-08-16T00:21:55;19.60;95.90
24664;DHT22;12791;50.992;13.788;2022-08-16T00:24:23;19.60;96.00
24664;DHT22;12791;50.992;13.788;2022-08-16T00:26:52;19.60;95.90
24664;DHT22;12791;50.992;13.788;2022-08-16T00:29:19;19.60;95.80
24664;DHT22;12791;50.992;13.788;2022-08-16T00:31:48;19.50;95.50
24664;DHT22;12791;50.992;13.788;2022-08-16T00:34:15;19.50;95.40
24664;DHT22;12791;50.992;13.788;2022-08-16T00:36:41;19.50;95.30
24664;DHT22;12791;50.992;13.788;2022-08-16T00:39:11;19.40;95.30
24664;DHT22;12791;50.992;13.788;2022-08-16T00:41:37;19.40;95.40
24664;DHT22;12791;50.992;13.788;2022-08-16T00:44:05;19.40;95.60
24664;DHT22;12791;50.992;13.788;2022-08-16T00:46:40;19.30;95.60
24664;DHT22;12791;50.992;13.788;2022-08-16T00:49:11;19.30;95.70
24664;DHT22;12791;50.992;13.788;2022-08-16T00:51:38;19.30;96.00
24664;DHT22;12791;50.992;13.788;2022-08-16T00:54:05;19.30;95.60
24664;DHT22;12791;50.992;13.788;2022-08-16T00:56:35;19.30;95.50
24664;DHT22;12791;50.992;13.788;2022-08-16T00:59:03;19.20;95.30
24664;DHT22;12791;50.992;13.788;2022-08-16T01:01:31;19.20;95.30
24664;DHT22;12791;50.992;13.788;2022-08-16T01:03:59;19.10;95.20
24664;DHT22;12791;50.992;13.788;2022-08-16T01:06:26;19.10;95.20
24664;DHT22;12791;50.992;13.788;2022-08-16T01:08:56;19.00;95.20
24664;DHT22;12791;50.992;13.788;2022-08-16T01:11:24;19.00;95.20
24664;DHT22;12791;50.992;13.788;2022-08-16T01:13:53;19.00;95.20
24664;DHT22;12791;50.992;13.788;2022-08-16T01:16:25;18.90;95.30
24664;DHT22;12791;50.992;13.788;2022-08-16T01:18:58;18.90;95.50
24664;DHT22;12791;50.992;13.788;2022-08-16T01:21:33;18.90;95.50
24664;DHT22;12791;50.992;13.788;2022-08-16T01:24:17;18.90;95.80
24664;DHT22;12791;50.992;13.788;2022-08-16T01:26:45;18.90;95.60
24664;DHT22;12791;50.992;13.788;2022-08-16T01:29:17;18.90;95.50
24664;DHT22;12791;50.992;13.788;2022-08-16T01:31:46;18.80;95.50
24664;DHT22;12791;50.992;13.788;2022-08-16T01:34:13;18.80;95.80
24664;DHT22;12791;50.992;13.788;2022-08-16T01:36:40;18.70;96.10
24664;DHT22;12791;50.992;13.788;2022-08-16T01:39:11;18.70;96.00
24664;DHT22;12791;50.992;13.788;2022-08-16T01:41:38;18.60;95.90
24664;DHT22;12791;50.992;13.788;2022-08-16T01:44:05;18.60;96.00
24664;DHT22;12791;50.992;13.788;2022-08-16T01:46:35;18.60;96.00
24664;DHT22;12791;50.992;13.788;2022-08-16T01:49:09;18.50;96.10
24664;DHT22;12791;50.992;13.788;2022-08-16T01:51:38;18.50;96.10
24664;DHT22;12791;50.992;13.788;2022-08-16T01:54:06;18.50;96.10
24664;DHT22;12791;50.992;13.788;2022-08-16T01:56:35;18.50;96.00
24664;DHT22;12791;50.992;13.788;2022-08-16T01:59:04;18.50;96.10
24664;DHT22;12791;50.992;13.788;2022-08-16T02:01:32;18.50;96.00
24664;DHT22;12791;50.992;13.788;2022-08-16T02:04:00;18.40;96.10
24664;DHT22;12791;50.992;13.788;2022-08-16T02:06:27;18.40;96.20
24664;DHT22;12791;50.992;13.788;2022-08-16T02:08:54;18.40;96.30
24664;DHT22;12791;50.992;13.788;2022-08-16T02:11:21;18.40;96.40
24664;DHT22;12791;50.992;13.788;2022-08-16T02:13:49;18.30;96.30
24664;DHT22;12791;50.992;13.788;2022-08-16T02:16:17;18.30;96.20
24664;DHT22;12791;50.992;13.788;2022-08-16T02:18:44;18.30;96.30
24664;DHT22;12791;50.992;13.788;2022-08-16T02:21:12;18.30;96.50
24664;DHT22;12791;50.992;13.788;2022-08-16T02:23:39;18.30;96.50
24664;DHT22;12791;50.992;13.788;2022-08-16T02:26:06;18.30;96.90
24664;DHT22;12791;50.992;13.788;2022-08-16T02:28:34;18.30;96.80
24664;DHT22;12791;50.992;13.788;2022-08-16T02:31:06;18.40;96.90
24664;DHT22;12791;50.992;13.788;2022-08-16T02:33:33;18.30;96.70
24664;DHT22;12791;50.992;13.788;2022-08-16T02:35:59;18.30;96.60
24664;DHT22;12791;50.992;13.788;2022-08-16T02:38:27;18.30;96.60
24664;DHT22;12791;50.992;13.788;2022-08-16T02:40:54;18.20;96.60
24664;DHT22;12791;50.992;13.788;2022-08-16T02:43:21;18.20;96.80
24664;DHT22;12791;50.992;13.788;2022-08-16T02:45:48;18.20;97.00
24664;DHT22;12791;50.992;13.788;2022-08-16T02:48:16;18.20;97.20
24664;DHT22;12791;50.992;13.788;2022-08-16T02:50:42;18.10;97.30
24664;DHT22;12791;50.992;13.788;2022-08-16T02:53:09;18.10;97.40
24664;DHT22;12791;50.992;13.788;2022-08-16T02:55:36;18.10;97.70
24664;DHT22;12791;50.992;13.788;2022-08-16T02:58:02;18.10;98.10
24664;DHT22;12791;50.992;13.788;2022-08-16T03:00:30;18.10;98.20
24664;DHT22;12791;50.992;13.788;2022-08-16T03:02:57;18.20;98.30
24664;DHT22;12791;50.992;13.788;2022-08-16T03:05:26;18.20;98.50
24664;DHT22;12791;50.992;13.788;2022-08-16T03:07:52;18.20;98.50
24664;DHT22;12791;50.992;13.788;2022-08-16T03:10:19;18.20;98.70
24664;DHT22;12791;50.992;13.788;2022-08-16T03:12:46;18.20;98.90
24664;DHT22;12791;50.992;13.788;2022-08-16T03:15:15;18.20;98.90
24664;DHT22;12791;50.992;13.788;2022-08-16T03:17:43;18.20;98.90
24664;DHT22;12791;50.992;13.788;2022-08-16T03:20:12;18.20;98.80
24664;DHT22;12791;50.992;13.788;2022-08-16T03:22:41;18.20;98.80
24664;DHT22;12791;50.992;13.788;2022-08-16T03:25:10;18.10;98.80
24664;DHT22;12791;50.992;13.788;2022-08-16T03:27:37;18.20;98.80
24664;DHT22;12791;50.992;13.788;2022-08-16T03:30:09;18.20;98.90
24664;DHT22;12791;50.992;13.788;2022-08-16T03:32:36;18.10;98.90
24664;DHT22;12791;50.992;13.788;2022-08-16T03:35:03;18.10;99.10
24664;DHT22;12791;50.992;13.788;2022-08-16T03:37:30;18.10;99.30
24664;DHT22;12791;50.992;13.788;2022-08-16T03:39:58;18.10;99.60
24664;DHT22;12791;50.992;13.788;2022-08-16T03:42:25;18.10;99.90
24664;DHT22;12791;50.992;13.788;2022-08-16T03:44:52;18.10;99.90
24664;DHT22;12791;50.992;13.788;2022-08-16T03:47:18;18.10;99.40
24664;DHT22;12791;50.992;13.788;2022-08-16T03:49:47;18.10;99.20
24664;DHT22;12791;50.992;13.788;2022-08-16T03:52:14;18.10;99.30
24664;DHT22;12791;50.992;13.788;2022-08-16T03:54:41;18.00;99.40
24664;DHT22;12791;50.992;13.788;2022-08-16T03:57:09;18.00;99.40
24664;DHT22;12791;50.992;13.788;2022-08-16T03:59:35;18.00;99.40
24664;DHT22;12791;50.992;13.788;2022-08-16T04:02:02;18.00;99.60
24664;DHT22;12791;50.992;13.788;2022-08-16T04:04:29;18.10;99.80
24664;DHT22;12791;50.992;13.788;2022-08-16T04:06:56;18.10;99.90
24664;DHT22;12791;50.992;13.788;2022-08-16T04:09:23;18.10;99.90
24664;DHT22;12791;50.992;13.788;2022-08-16T04:11:49;18.10;99.90
24664;DHT22;12791;50.992;13.788;2022-08-16T04:14:17;18.10;99.90
24664;DHT22;12791;50.992;13.788;2022-08-16T04:16:44;18.10;99.90
24664;DHT22;12791;50.992;13.788;2022-08-16T04:19:11;18.10;99.90
24664;DHT22;12791;50.992;13.788;2022-08-16T04:21:37;18.10;99.90
24664;DHT22;12791;50.992;13.788;2022-08-16T04:24:04;18.10;99.60
24664;DHT22;12791;50.992;13.788;2022-08-16T04:26:31;18.10;99.50
24664;DHT22;12791;50.992;13.788;2022-08-16T04:28:58;18.10;99.50
24664;DHT22;12791;50.992;13.788;2022-08-16T04:31:27;18.10;99.60
24664;DHT22;12791;50.992;13.788;2022-08-16T04:33:53;18.10;99.70
24664;DHT22;12791;50.992;13.788;2022-08-16T04:36:23;18.10;99.70
24664;DHT22;12791;50.992;13.788;2022-08-16T04:38:50;18.10;99.60
24664;DHT22;12791;50.992;13.788;2022-08-16T04:41:17;18.10;99.50
24664;DHT22;12791;50.992;13.788;2022-08-16T04:43:43;18.20;99.50
24664;DHT22;12791;50.992;13.788;2022-08-16T04:46:10;18.10;99.50
24664;DHT22;12791;50.992;13.788;2022-08-16T04:48:40;18.10;99.50
24664;DHT22;12791;50.992;13.788;2022-08-16T04:51:06;18.20;99.70
24664;DHT22;12791;50.992;13.788;2022-08-16T04:53:33;18.20;99.90
24664;DHT22;12791;50.992;13.788;2022-08-16T04:56:00;18.30;99.90
24664;DHT22;12791;50.992;13.788;2022-08-16T04:58:27;18.30;99.90
24664;DHT22;12791;50.992;13.788;2022-08-16T05:00:55;18.30;99.90
24664;DHT22;12791;50.992;13.788;2022-08-16T05:03:22;18.40;99.90
24664;DHT22;12791;50.992;13.788;2022-08-16T05:05:50;18.40;99.90
24664;DHT22;12791;50.992;13.788;2022-08-16T05:08:17;18.50;99.90
24664;DHT22;12791;50.992;13.788;2022-08-16T05:10:44;18.50;99.90
24664;DHT22;12791;50.992;13.788;2022-08-16T05:13:11;18.60;99.90
24664;DHT22;12791;50.992;13.788;2022-08-16T05:15:38;18.60;99.90
24664;DHT22;12791;50.992;13.788;2022-08-16T05:18:04;18.70;99.90
24664;DHT22;12791;50.992;13.788;2022-08-16T05:20:31;18.70;99.90
24664;DHT22;12791;50.992;13.788;2022-08-16T05:22:59;18.80;99.90
24664;DHT22;12791;50.992;13.788;2022-08-16T05:25:26;18.80;99.90
24664;DHT22;12791;50.992;13.788;2022-08-16T05:27:53;18.90;99.90
24664;DHT22;12791;50.992;13.788;2022-08-16T05:30:20;18.90;99.90
24664;DHT22;12791;50.992;13.788;2022-08-16T05:32:46;19.00;99.90
24664;DHT22;12791;50.992;13.788;2022-08-16T05:35:14;19.10;99.90
24664;DHT22;12791;50.992;13.788;2022-08-16T05:37:41;19.10;99.90
24664;DHT22;12791;50.992;13.788;2022-08-16T05:40:11;19.10;99.90
24664;DHT22;12791;50.992;13.788;2022-08-16T05:42:38;19.20;99.90
24664;DHT22;12791;50.992;13.788;2022-08-16T05:45:06;19.30;99.90
24664;DHT22;12791;50.992;13.788;2022-08-16T05:47:33;19.30;99.90
24664;DHT22;12791;50.992;13.788;2022-08-16T05:50:00;19.40;99.90
24664;DHT22;12791;50.992;13.788;2022-08-16T05:52:26;19.40;99.80
24664;DHT22;12791;50.992;13.788;2022-08-16T05:54:53;19.50;99.60
24664;DHT22;12791;50.992;13.788;2022-08-16T05:57:21;19.40;99.70
24664;DHT22;12791;50.992;13.788;2022-08-16T05:59:48;19.40;99.90
24664;DHT22;12791;50.992;13.788;2022-08-16T06:02:16;19.40;99.90
24664;DHT22;12791;50.992;13.788;2022-08-16T06:04:42;19.60;99.90
24664;DHT22;12791;50.992;13.788;2022-08-16T06:07:09;19.50;99.90
24664;DHT22;12791;50.992;13.788;2022-08-16T06:09:36;19.50;99.60
24664;DHT22;12791;50.992;13.788;2022-08-16T06:12:04;19.50;99.50
24664;DHT22;12791;50.992;13.788;2022-08-16T06:14:32;19.60;99.20
24664;DHT22;12791;50.992;13.788;2022-08-16T06:16:59;19.60;99.10
24664;DHT22;12791;50.992;13.788;2022-08-16T06:19:25;19.70;99.00
24664;DHT22;12791;50.992;13.788;2022-08-16T06:21:52;19.80;98.40
24664;DHT22;12791;50.992;13.788;2022-08-16T06:24:19;19.90;98.20
24664;DHT22;12791;50.992;13.788;2022-08-16T06:26:45;19.90;97.80
24664;DHT22;12791;50.992;13.788;2022-08-16T06:29:12;20.10;97.40
24664;DHT22;12791;50.992;13.788;2022-08-16T06:31:40;20.10;96.20
24664;DHT22;12791;50.992;13.788;2022-08-16T06:34:06;20.30;96.00
24664;DHT22;12791;50.992;13.788;2022-08-16T06:36:33;20.40;95.70
24664;DHT22;12791;50.992;13.788;2022-08-16T06:39:00;20.40;95.80
24664;DHT22;12791;50.992;13.788;2022-08-16T06:41:26;20.50;95.80
24664;DHT22;12791;50.992;13.788;2022-08-16T06:43:53;20.60;95.80
24664;DHT22;12791;50.992;13.788;2022-08-16T06:46:23;20.70;95.80
24664;DHT22;12791;50.992;13.788;2022-08-16T06:48:52;20.80;95.00
24664;DHT22;12791;50.992;13.788;2022-08-16T06:51:19;20.80;94.80
24664;DHT22;12791;50.992;13.788;2022-08-16T06:53:45;20.90;94.80
24664;DHT22;12791;50.992;13.788;2022-08-16T06:56:12;20.90;94.50
24664;DHT22;12791;50.992;13.788;2022-08-16T06:58:39;21.00;94.40
24664;DHT22;12791;50.992;13.788;2022-08-16T07:01:05;21.00;94.40
24664;DHT22;12791;50.992;13.788;2022-08-16T07:03:32;21.10;94.50
24664;DHT22;12791;50.992;13.788;2022-08-16T07:06:00;21.10;94.30
24664;DHT22;12791;50.992;13.788;2022-08-16T07:08:27;21.20;93.20
24664;DHT22;12791;50.992;13.788;2022-08-16T07:10:54;21.30;92.60
24664;DHT22;12791;50.992;13.788;2022-08-16T07:13:23;21.30;92.20
24664;DHT22;12791;50.992;13.788;2022-08-16T07:15:50;21.40;92.10
24664;DHT22;12791;50.992;13.788;2022-08-16T07:18:17;21.50;92.20
24664;DHT22;12791;50.992;13.788;2022-08-16T07:20:46;21.60;91.10
24664;DHT22;12791;50.992;13.788;2022-08-16T07:23:14;21.70;90.50
24664;DHT22;12791;50.992;13.788;2022-08-16T07:25:41;21.90;90.10
24664;DHT22;12791;50.992;13.788;2022-08-16T07:28:10;22.00;90.00
24664;DHT22;12791;50.992;13.788;2022-08-16T07:30:37;22.10;87.20
24664;DHT22;12791;50.992;13.788;2022-08-16T07:33:04;22.20;86.70
24664;DHT22;12791;50.992;13.788;2022-08-16T07:35:32;22.20;85.10
24664;DHT22;12791;50.992;13.788;2022-08-16T07:38:02;22.30;84.00
24664;DHT22;12791;50.992;13.788;2022-08-16T07:40:30;22.40;82.90
24664;DHT22;12791;50.992;13.788;2022-08-16T07:42:57;22.50;81.90
24664;DHT22;12791;50.992;13.788;2022-08-16T07:45:24;22.60;81.10
24664;DHT22;12791;50.992;13.788;2022-08-16T07:47:50;22.70;81.50
24664;DHT22;12791;50.992;13.788;2022-08-16T07:50:18;22.70;81.80
24664;DHT22;12791;50.992;13.788;2022-08-16T07:52:44;22.80;80.80
24664;DHT22;12791;50.992;13.788;2022-08-16T07:55:13;22.90;79.80
24664;DHT22;12791;50.992;13.788;2022-08-16T07:57:41;23.00;77.80
24664;DHT22;12791;50.992;13.788;2022-08-16T08:00:10;23.10;77.70
24664;DHT22;12791;50.992;13.788;2022-08-16T08:02:37;23.20;76.90
24664;DHT22;12791;50.992;13.788;2022-08-16T08:05:05;23.20;76.80
24664;DHT22;12791;50.992;13.788;2022-08-16T08:07:32;23.30;75.60
24664;DHT22;12791;50.992;13.788;2022-08-16T08:09:58;23.40;74.90
24664;DHT22;12791;50.992;13.788;2022-08-16T08:12:25;23.40;74.40
24664;DHT22;12791;50.992;13.788;2022-08-16T08:14:53;23.50;74.50
24664;DHT22;12791;50.992;13.788;2022-08-16T08:17:20;23.50;73.90
24664;DHT22;12791;50.992;13.788;2022-08-16T08:19:47;23.50;73.80
24664;DHT22;12791;50.992;13.788;2022-08-16T08:22:14;23.60;73.60
24664;DHT22;12791;50.992;13.788;2022-08-16T08:24:40;23.60;73.60
24664;DHT22;12791;50.992;13.788;2022-08-16T08:27:08;23.60;72.50
24664;DHT22;12791;50.992;13.788;2022-08-16T08:29:36;23.70;72.00
24664;DHT22;12791;50.992;13.788;2022-08-16T08:32:05;23.80;72.00
24664;DHT22;12791;50.992;13.788;2022-08-16T08:34:33;23.80;72.30
24664;DHT22;12791;50.992;13.788;2022-08-16T08:37:00;23.80;71.60
24664;DHT22;12791;50.992;13.788;2022-08-16T08:39:26;23.90;71.20
24664;DHT22;12791;50.992;13.788;2022-08-16T08:41:53;24.10;71.20
24664;DHT22;12791;50.992;13.788;2022-08-16T08:44:20;24.20;70.50
24664;DHT22;12791;50.992;13.788;2022-08-16T08:46:46;24.20;70.40
24664;DHT22;12791;50.992;13.788;2022-08-16T08:49:14;24.30;70.20
24664;DHT22;12791;50.992;13.788;2022-08-16T08:51:41;24.30;70.30
24664;DHT22;12791;50.992;13.788;2022-08-16T08:54:08;24.30;70.10
24664;DHT22;12791;50.992;13.788;2022-08-16T08:56:35;24.30;69.30
24664;DHT22;12791;50.992;13.788;2022-08-16T08:59:03;24.30;69.40
24664;DHT22;12791;50.992;13.788;2022-08-16T09:01:32;24.30;69.30
24664;DHT22;12791;50.992;13.788;2022-08-16T09:04:00;24.30;69.20
24664;DHT22;12791;50.992;13.788;2022-08-16T09:06:29;24.30;69.10
24664;DHT22;12791;50.992;13.788;2022-08-16T09:08:57;24.30;68.60
24664;DHT22;12791;50.992;13.788;2022-08-16T09:11:24;24.40;68.70
24664;DHT22;12791;50.992;13.788;2022-08-16T09:13:51;24.40;68.50
24664;DHT22;12791;50.992;13.788;2022-08-16T09:16:18;24.50;68.40
24664;DHT22;12791;50.992;13.788;2022-08-16T09:18:45;24.50;67.50
24664;DHT22;12791;50.992;13.788;2022-08-16T09:21:14;24.50;67.30
24664;DHT22;12791;50.992;13.788;2022-08-16T09:23:42;24.50;67.30
24664;DHT22;12791;50.992;13.788;2022-08-16T09:26:10;24.40;67.00
24664;DHT22;12791;50.992;13.788;2022-08-16T09:28:40;24.50;66.80
24664;DHT22;12791;50.992;13.788;2022-08-16T09:31:07;24.50;67.30
24664;DHT22;12791;50.992;13.788;2022-08-16T09:33:34;24.60;68.30
24664;DHT22;12791;50.992;13.788;2022-08-16T09:36:01;24.70;65.10
24664;DHT22;12791;50.992;13.788;2022-08-16T09:38:28;24.80;65.00
24664;DHT22;12791;50.992;13.788;2022-08-16T09:40:57;24.80;65.90
24664;DHT22;12791;50.992;13.788;2022-08-16T09:43:24;24.90;65.20
24664;DHT22;12791;50.992;13.788;2022-08-16T09:45:50;25.10;63.90
24664;DHT22;12791;50.992;13.788;2022-08-16T09:48:17;25.20;63.80
24664;DHT22;12791;50.992;13.788;2022-08-16T09:50:45;25.30;62.70
24664;DHT22;12791;50.992;13.788;2022-08-16T09:53:15;25.40;62.50
24664;DHT22;12791;50.992;13.788;2022-08-16T09:55:44;25.50;62.00
24664;DHT22;12791;50.992;13.788;2022-08-16T09:58:13;25.60;62.00
24664;DHT22;12791;50.992;13.788;2022-08-16T10:00:39;25.60;61.50
24664;DHT22;12791;50.992;13.788;2022-08-16T10:03:06;25.60;61.50
24664;DHT22;12791;50.992;13.788;2022-08-16T10:05:33;25.60;61.50
24664;DHT22;12791;50.992;13.788;2022-08-16T10:08:02;25.50;61.40
24664;DHT22;12791;50.992;13.788;2022-08-16T10:10:30;25.50;61.40
24664;DHT22;12791;50.992;13.788;2022-08-16T10:12:57;25.50;61.40
24664;DHT22;12791;50.992;13.788;2022-08-16T10:15:40;25.40;61.40
24664;DHT22;12791;50.992;13.788;2022-08-16T10:18:09;25.40;62.30
24664;DHT22;12791;50.992;13.788;2022-08-16T10:20:44;25.30;62.90
24664;DHT22;12791;50.992;13.788;2022-08-16T10:23:14;25.30;63.20
24664;DHT22;12791;50.992;13.788;2022-08-16T10:25:43;25.20;63.00
24664;DHT22;12791;50.992;13.788;2022-08-16T10:28:16;25.20;62.60
24664;DHT22;12791;50.992;13.788;2022-08-16T10:30:44;25.20;62.70
24664;DHT22;12791;50.992;13.788;2022-08-16T10:33:11;25.20;62.10
24664;DHT22;12791;50.992;13.788;2022-08-16T10:35:39;25.30;62.20
24664;DHT22;12791;50.992;13.788;2022-08-16T10:38:06;25.40;61.30
24664;DHT22;12791;50.992;13.788;2022-08-16T10:40:33;25.50;61.40
24664;DHT22;12791;50.992;13.788;2022-08-16T10:43:00;25.60;61.20
24664;DHT22;12791;50.992;13.788;2022-08-16T10:45:28;25.70;61.40
24664;DHT22;12791;50.992;13.788;2022-08-16T10:47:57;25.70;61.00
24664;DHT22;12791;50.992;13.788;2022-08-16T10:50:25;25.70;60.50
24664;DHT22;12791;50.992;13.788;2022-08-16T10:52:52;25.80;60.70
24664;DHT22;12791;50.992;13.788;2022-08-16T10:55:19;25.80;60.50
24664;DHT22;12791;50.992;13.788;2022-08-16T10:57:46;25.90;60.40
24664;DHT22;12791;50.992;13.788;2022-08-16T11:00:15;25.90;60.10
24664;DHT22;12791;50.992;13.788;2022-08-16T11:02:43;26.00;60.10
24664;DHT22;12791;50.992;13.788;2022-08-16T11:05:14;26.00;59.20
24664;DHT22;12791;50.992;13.788;2022-08-16T11:07:44;26.20;59.80
24664;DHT22;12791;50.992;13.788;2022-08-16T11:10:12;26.30;59.20
24664;DHT22;12791;50.992;13.788;2022-08-16T11:12:39;26.30;58.50
24664;DHT22;12791;50.992;13.788;2022-08-16T11:15:06;26.30;58.50
24664;DHT22;12791;50.992;13.788;2022-08-16T11:17:33;26.40;59.00
24664;DHT22;12791;50.992;13.788;2022-08-16T11:20:01;26.50;58.40
24664;DHT22;12791;50.992;13.788;2022-08-16T11:22:29;26.50;58.00
24664;DHT22;12791;50.992;13.788;2022-08-16T11:24:56;26.60;57.90
24664;DHT22;12791;50.992;13.788;2022-08-16T11:27:22;26.50;57.70
24664;DHT22;12791;50.992;13.788;2022-08-16T11:29:53;26.50;57.60
24664;DHT22;12791;50.992;13.788;2022-08-16T11:32:19;26.50;56.80
24664;DHT22;12791;50.992;13.788;2022-08-16T11:34:46;26.60;56.40
24664;DHT22;12791;50.992;13.788;2022-08-16T11:37:13;26.60;56.90
24664;DHT22;12791;50.992;13.788;2022-08-16T11:39:41;26.60;56.30
24664;DHT22;12791;50.992;13.788;2022-08-16T11:42:07;26.60;55.70
24664;DHT22;12791;50.992;13.788;2022-08-16T11:44:34;26.60;55.80
24664;DHT22;12791;50.992;13.788;2022-08-16T11:47:01;26.60;56.30
24664;DHT22;12791;50.992;13.788;2022-08-16T11:49:27;26.60;56.20
24664;DHT22;12791;50.992;13.788;2022-08-16T11:51:54;26.60;55.90
24664;DHT22;12791;50.992;13.788;2022-08-16T11:54:21;26.60;55.70
24664;DHT22;12791;50.992;13.788;2022-08-16T11:56:49;26.60;56.10
24664;DHT22;12791;50.992;13.788;2022-08-16T11:59:15;26.60;56.50
24664;DHT22;12791;50.992;13.788;2022-08-16T12:01:43;26.60;56.60
24664;DHT22;12791;50.992;13.788;2022-08-16T12:04:10;26.70;55.60
24664;DHT22;12791;50.992;13.788;2022-08-16T12:06:37;26.70;54.90
24664;DHT22;12791;50.992;13.788;2022-08-16T12:09:04;26.70;55.30
24664;DHT22;12791;50.992;13.788;2022-08-16T12:11:31;26.70;55.80
24664;DHT22;12791;50.992;13.788;2022-08-16T12:14:00;26.70;56.00
24664;DHT22;12791;50.992;13.788;2022-08-16T12:16:27;26.60;55.80
24664;DHT22;12791;50.992;13.788;2022-08-16T12:18:54;26.60;56.00
24664;DHT22;12791;50.992;13.788;2022-08-16T12:21:21;26.60;55.40
24664;DHT22;12791;50.992;13.788;2022-08-16T12:23:47;26.70;55.50
24664;DHT22;12791;50.992;13.788;2022-08-16T12:26:14;26.80;55.60
24664;DHT22;12791;50.992;13.788;2022-08-16T12:28:41;26.90;54.90
24664;DHT22;12791;50.992;13.788;2022-08-16T12:31:09;27.00;55.00
24664;DHT22;12791;50.992;13.788;2022-08-16T12:33:36;27.10;53.90
24664;DHT22;12791;50.992;13.788;2022-08-16T12:36:09;27.20;53.90
24664;DHT22;12791;50.992;13.788;2022-08-16T12:38:36;27.30;52.80
24664;DHT22;12791;50.992;13.788;2022-08-16T12:41:03;27.30;53.00
24664;DHT22;12791;50.992;13.788;2022-08-16T12:43:29;27.30;53.30
24664;DHT22;12791;50.992;13.788;2022-08-16T12:45:56;27.30;53.70
24664;DHT22;12791;50.992;13.788;2022-08-16T12:48:27;27.20;53.50
24664;DHT22;12791;50.992;13.788;2022-08-16T12:51:14;27.20;53.20
24664;DHT22;12791;50.992;13.788;2022-08-16T12:53:41;27.20;53.10
24664;DHT22;12791;50.992;13.788;2022-08-16T12:56:08;27.20;53.00
24664;DHT22;12791;50.992;13.788;2022-08-16T12:58:36;27.20;53.10
24664;DHT22;12791;50.992;13.788;2022-08-16T13:01:04;27.20;53.20
24664;DHT22;12791;50.992;13.788;2022-08-16T13:03:32;27.20;53.20
24664;DHT22;12791;50.992;13.788;2022-08-16T13:05:58;27.30;53.00
24664;DHT22;12791;50.992;13.788;2022-08-16T13:08:26;27.30;53.40
24664;DHT22;12791;50.992;13.788;2022-08-16T13:10:52;27.40;52.30
24664;DHT22;12791;50.992;13.788;2022-08-16T13:13:22;27.50;52.10
24664;DHT22;12791;50.992;13.788;2022-08-16T13:15:50;27.60;52.70
24664;DHT22;12791;50.992;13.788;2022-08-16T13:18:18;27.60;51.70
24664;DHT22;12791;50.992;13.788;2022-08-16T13:20:46;27.70;51.70
24664;DHT22;12791;50.992;13.788;2022-08-16T13:23:13;27.70;51.50
24664;DHT22;12791;50.992;13.788;2022-08-16T13:25:43;27.80;51.30
24664;DHT22;12791;50.992;13.788;2022-08-16T13:28:10;27.90;50.90
24664;DHT22;12791;50.992;13.788;2022-08-16T13:30:40;27.90;50.80
24664;DHT22;12791;50.992;13.788;2022-08-16T13:33:09;27.90;50.50
24664;DHT22;12791;50.992;13.788;2022-08-16T13:35:35;27.90;51.00
24664;DHT22;12791;50.992;13.788;2022-08-16T13:38:03;27.90;50.80
24664;DHT22;12791;50.992;13.788;2022-08-16T13:40:30;27.90;50.70
24664;DHT22;12791;50.992;13.788;2022-08-16T13:42:58;27.90;51.40
24664;DHT22;12791;50.992;13.788;2022-08-16T13:45:25;27.90;50.40
24664;DHT22;12791;50.992;13.788;2022-08-16T13:47:52;27.90;50.30
24664;DHT22;12791;50.992;13.788;2022-08-16T13:50:19;28.00;50.30
24664;DHT22;12791;50.992;13.788;2022-08-16T13:52:46;28.10;49.90
24664;DHT22;12791;50.992;13.788;2022-08-16T13:55:14;28.10;49.80
24664;DHT22;12791;50.992;13.788;2022-08-16T13:57:41;28.00;49.90
24664;DHT22;12791;50.992;13.788;2022-08-16T14:00:08;28.00;50.30
24664;DHT22;12791;50.992;13.788;2022-08-16T14:02:35;28.00;50.00
24664;DHT22;12791;50.992;13.788;2022-08-16T14:05:03;28.00;50.30
24664;DHT22;12791;50.992;13.788;2022-08-16T14:07:30;27.90;50.10
24664;DHT22;12791;50.992;13.788;2022-08-16T14:09:56;27.80;50.70
24664;DHT22;12791;50.992;13.788;2022-08-16T14:12:27;27.80;50.70
24664;DHT22;12791;50.992;13.788;2022-08-16T14:14:55;27.70;50.40
24664;DHT22;12791;50.992;13.788;2022-08-16T14:17:23;27.80;50.80
24664;DHT22;12791;50.992;13.788;2022-08-16T14:19:50;27.90;50.50
24664;DHT22;12791;50.992;13.788;2022-08-16T14:22:19;27.90;50.30
24664;DHT22;12791;50.992;13.788;2022-08-16T14:24:48;28.00;49.80
24664;DHT22;12791;50.992;13.788;2022-08-16T14:27:15;28.20;50.10
24664;DHT22;12791;50.992;13.788;2022-08-16T14:29:44;28.40;49.00
24664;DHT22;12791;50.992;13.788;2022-08-16T14:32:11;28.50;48.20
24664;DHT22;12791;50.992;13.788;2022-08-16T14:34:38;28.60;48.10
24664;DHT22;12791;50.992;13.788;2022-08-16T14:37:05;28.70;48.10
24664;DHT22;12791;50.992;13.788;2022-08-16T14:39:32;28.80;47.40
24664;DHT22;12791;50.992;13.788;2022-08-16T14:42:04;28.80;47.70
24664;DHT22;12791;50.992;13.788;2022-08-16T14:44:31;28.80;47.50
24664;DHT22;12791;50.992;13.788;2022-08-16T14:46:59;28.90;47.50
24664;DHT22;12791;50.992;13.788;2022-08-16T14:49:26;28.90;47.50
24664;DHT22;12791;50.992;13.788;2022-08-16T14:51:53;29.00;46.50
24664;DHT22;12791;50.992;13.788;2022-08-16T14:54:19;29.10;46.30
24664;DHT22;12791;50.992;13.788;2022-08-16T14:56:47;29.10;46.10
24664;DHT22;12791;50.992;13.788;2022-08-16T14:59:15;29.10;46.30
24664;DHT22;12791;50.992;13.788;2022-08-16T15:01:41;29.10;46.00
24664;DHT22;12791;50.992;13.788;2022-08-16T15:04:11;29.20;46.00
24664;DHT22;12791;50.992;13.788;2022-08-16T15:06:38;29.20;46.20
24664;DHT22;12791;50.992;13.788;2022-08-16T15:09:04;29.20;45.90
24664;DHT22;12791;50.992;13.788;2022-08-16T15:11:31;29.30;45.50
24664;DHT22;12791;50.992;13.788;2022-08-16T15:13:57;29.30;45.50
24664;DHT22;12791;50.992;13.788;2022-08-16T15:16:24;29.40;45.10
24664;DHT22;12791;50.992;13.788;2022-08-16T15:18:51;29.40;45.30